Time;durP1;ratioP1;P1;durP2;ratioP2;P2;SDS_P1;SDS_P2;PMS_P1;PMS_P2;Temp;Humidity;BMP_temperature;BMP_pressure;BME280_temperature;BME280_humidity;BME280_pressure;Samples;Min_cycle;Max_cycle;Signal;HPM_P1;HPM_P2
2020/12/23 00:02:24;;;;;;;3.10;1.40;;;;;;;13.65;100.00;100407.27;642279;223;26989;-72
2020/12/23 00:04:52;;;;;;;2.00;1.53;;;;;;;13.68;100.00;100399.63;640637;220;24860;-74
2020/12/23 00:07:20;;;;;;;1.43;1.30;;;;;;;13.76;100.00;100399.62;641204;222;23819;-72
2020/12/23 00:09:48;;;;;;;3.23;1.57;;;;;;;13.65;100.00;100395.52;641259;224;24810;-76
2020/12/23 00:12:15;;;;;;;1.37;1.10;;;;;;;13.60;100.00;100403.84;640940;224;23816;-72
2020/12/23 00:14:43;;;;;;;2.15;1.40;;;;;;;13.87;100.00;100403.23;635049;220;32782;-75
2020/12/23 00:17:11;;;;;;;1.90;1.30;;;;;;;13.81;100.00;100397.36;624443;229;23734;-72
2020/12/23 00:19:39;;;;;;;1.93;1.73;;;;;;;13.66;100.00;100394.07;639425;224;24802;-72
2020/12/23 00:22:07;;;;;;;1.97;1.30;;;;;;;13.72;100.00;100391.29;628402;228;23860;-73
2020/12/23 00:24:35;;;;;;;2.00;1.47;;;;;;;13.50;100.00;100387.48;635805;225;24897;-73
2020/12/23 00:27:03;;;;;;;5.00;1.60;;;;;;;13.63;100.00;100385.22;622863;228;23907;-72
2020/12/23 00:29:31;;;;;;;1.60;1.40;;;;;;;13.63;100.00;100389.63;628990;228;23859;-72
2020/12/23 00:31:59;;;;;;;1.80;1.40;;;;;;;13.50;100.00;100378.33;640791;224;26060;-73
2020/12/23 00:34:26;;;;;;;2.80;1.43;;;;;;;13.80;100.00;100383.97;635582;224;39171;-75
2020/12/23 00:36:55;;;;;;;2.15;1.60;;;;;;;14.01;100.00;100382.98;620127;229;33009;-74
2020/12/23 00:39:23;;;;;;;2.80;1.23;;;;;;;13.85;100.00;100385.59;635774;223;32905;-72
2020/12/23 00:41:51;;;;;;;1.80;1.20;;;;;;;13.95;100.00;100379.23;634176;223;33171;-76
2020/12/23 00:44:18;;;;;;;2.03;1.20;;;;;;;13.53;100.00;100392.41;640265;220;24797;-72
2020/12/23 00:46:46;;;;;;;1.50;1.40;;;;;;;13.56;100.00;100389.47;625734;229;23900;-72
2020/12/23 00:49:14;;;;;;;2.00;1.50;;;;;;;13.40;100.00;100392.53;625101;229;24780;-72
2020/12/23 00:51:42;;;;;;;3.20;1.30;;;;;;;13.57;100.00;100388.48;629878;228;24853;-73
2020/12/23 00:54:10;;;;;;;1.87;1.50;;;;;;;13.41;100.00;100384.53;639628;224;27062;-72
2020/12/23 00:56:38;;;;;;;2.07;1.50;;;;;;;13.55;100.00;100386.53;640825;224;23810;-72
2020/12/23 00:59:06;;;;;;;2.43;1.70;;;;;;;13.39;100.00;100386.48;638163;223;23855;-72
2020/12/23 01:01:33;;;;;;;5.53;1.80;;;;;;;13.36;100.00;100390.21;625214;228;23808;-73
2020/12/23 01:04:01;;;;;;;2.20;1.30;;;;;;;13.53;100.00;100384.56;625571;226;24803;-74
2020/12/23 01:06:29;;;;;;;2.60;1.67;;;;;;;13.34;100.00;100380.41;640318;223;23799;-72
2020/12/23 01:08:57;;;;;;;2.90;1.20;;;;;;;13.38;100.00;100384.04;626851;228;24843;-73
2020/12/23 01:11:25;;;;;;;2.30;1.50;;;;;;;13.30;100.00;100386.13;639439;223;24819;-73
2020/12/23 01:13:53;;;;;;;3.40;1.63;;;;;;;13.37;100.00;100379.27;639002;224;23840;-72
2020/12/23 01:16:21;;;;;;;1.30;1.20;;;;;;;13.53;100.00;100383.26;640656;224;27947;-72
2020/12/23 01:18:49;;;;;;;4.60;1.27;;;;;;;13.40;100.00;100375.06;625065;229;24876;-73
2020/12/23 01:21:17;;;;;;;1.50;1.40;;;;;;;13.44;100.00;100380.28;625069;229;23852;-73
2020/12/23 01:23:45;;;;;;;2.73;1.20;;;;;;;13.49;100.00;100381.92;627233;225;23864;-72
2020/12/23 01:26:13;;;;;;;1.30;1.20;;;;;;;13.51;100.00;100387.83;626561;228;24811;-72
2020/12/23 01:28:41;;;;;;;2.23;1.40;;;;;;;13.37;100.00;100380.58;636871;225;23793;-73
2020/12/23 01:31:09;;;;;;;1.47;1.20;;;;;;;13.41;100.00;100389.76;626077;229;24839;-73
2020/12/23 01:33:37;;;;;;;1.70;1.60;;;;;;;13.46;100.00;100391.39;627722;225;24813;-74
2020/12/23 01:36:04;;;;;;;3.40;1.50;;;;;;;13.48;100.00;100380.28;638246;224;24832;-74
2020/12/23 01:38:32;;;;;;;3.00;1.47;;;;;;;13.82;100.00;100377.59;633501;224;32694;-74
2020/12/23 01:41:00;;;;;;;2.30;1.30;;;;;;;13.56;100.00;100379.02;639882;224;23699;-73
2020/12/23 01:43:28;;;;;;;1.80;1.20;;;;;;;13.49;100.00;100374.57;623268;226;24885;-72
2020/12/23 01:45:56;;;;;;;2.80;1.70;;;;;;;13.91;100.00;100381.83;631169;224;32856;-74
2020/12/23 01:48:24;;;;;;;1.67;1.57;;;;;;;13.54;100.00;100387.51;633056;225;23716;-73
2020/12/23 01:50:52;;;;;;;2.77;1.73;;;;;;;13.64;100.00;100399.92;626355;229;23825;-73
2020/12/23 01:53:21;;;;;;;1.90;1.52;;;;;;;13.78;100.00;100395.05;621088;229;32997;-72
2020/12/23 01:55:49;;;;;;;4.77;1.30;;;;;;;13.60;100.00;100403.02;639975;223;25870;-72
2020/12/23 01:58:17;;;;;;;1.60;1.40;;;;;;;13.41;100.00;100402.82;640570;223;24790;-73
2020/12/23 02:00:44;;;;;;;4.07;1.57;;;;;;;13.23;100.00;100409.92;627249;229;26994;-72
2020/12/23 02:03:12;;;;;;;2.70;1.60;;;;;;;13.12;100.00;100406.27;625742;229;24789;-72
2020/12/23 02:05:40;;;;;;;9.30;1.73;;;;;;;13.00;100.00;100409.16;626455;224;25043;-72
2020/12/23 02:08:08;;;;;;;4.70;1.65;;;;;;;13.15;100.00;100408.08;621521;228;32906;-73
2020/12/23 02:10:37;;;;;;;4.73;1.63;;;;;;;13.18;100.00;100398.64;636698;224;22712;-73
2020/12/23 02:13:04;;;;;;;2.80;1.63;;;;;;;13.12;100.00;100397.95;627216;229;23828;-72
2020/12/23 02:15:32;;;;;;;2.37;1.60;;;;;;;13.13;100.00;100383.09;625776;226;24812;-73
2020/12/23 02:18:00;;;;;;;3.43;1.53;;;;;;;13.20;100.00;100380.20;639742;223;23894;-74
2020/12/23 02:20:28;;;;;;;3.00;1.50;;;;;;;13.35;100.00;100372.09;640623;223;28042;-75
2020/12/23 02:22:55;;;;;;;2.00;1.40;;;;;;;13.21;100.00;100374.81;639046;224;23804;-72
2020/12/23 02:25:23;;;;;;;7.83;1.70;;;;;;;13.48;100.00;100378.98;626338;225;24857;-74
2020/12/23 02:27:51;;;;;;;2.40;1.50;;;;;;;13.17;100.00;100392.25;625866;227;28007;-73
2020/12/23 02:30:19;;;;;;;1.50;1.40;;;;;;;13.07;100.00;100389.26;628548;228;24844;-72
2020/12/23 02:32:47;;;;;;;4.07;1.40;;;;;;;13.22;100.00;100379.55;639451;224;23816;-73
2020/12/23 02:35:14;;;;;;;1.40;1.30;;;;;;;13.29;100.00;100374.05;625356;225;23838;-72
2020/12/23 02:37:43;;;;;;;3.93;1.30;;;;;;;13.28;100.00;100372.41;625892;229;23824;-73
2020/12/23 02:40:10;;;;;;;3.83;1.70;;;;;;;13.27;100.00;100376.00;626160;228;24861;-74
2020/12/23 02:42:38;;;;;;;2.17;1.50;;;;;;;13.23;100.00;100363.75;638855;225;24829;-74
2020/12/23 02:45:06;;;;;;;3.30;1.40;;;;;;;13.35;100.00;100366.86;634557;225;23867;-72
2020/12/23 02:47:34;;;;;;;1.73;1.40;;;;;;;13.30;100.00;100359.52;642613;223;24811;-72
2020/12/23 02:50:02;;;;;;;4.37;1.83;;;;;;;13.33;100.00;100363.11;638584;224;24835;-75
2020/12/23 02:52:29;;;;;;;2.62;1.50;;;;;;;13.42;100.00;100356.12;633969;223;32855;-72
2020/12/23 02:54:57;;;;;;;2.50;1.40;;;;;;;13.23;100.00;100351.15;640278;220;22700;-73
2020/12/23 02:57:25;;;;;;;3.57;1.47;;;;;;;13.29;100.00;100346.13;625524;229;33382;-73
2020/12/23 02:59:53;;;;;;;1.93;1.47;;;;;;;13.30;100.00;100355.59;624203;229;24881;-73
2020/12/23 03:02:21;;;;;;;1.50;1.37;;;;;;;13.27;100.00;100352.00;630053;226;24882;-73
2020/12/23 03:04:49;;;;;;;1.53;1.43;;;;;;;13.18;100.00;100348.17;635728;226;23853;-74
2020/12/23 03:07:17;;;;;;;2.00;1.50;;;;;;;13.23;100.00;100345.92;632889;226;24882;-73
2020/12/23 03:09:45;;;;;;;3.37;1.72;;;;;;;13.34;100.00;100335.19;628415;225;33195;-72
2020/12/23 03:12:12;;;;;;;3.52;1.80;;;;;;;13.56;100.00;100340.30;629666;225;32904;-72
2020/12/23 03:14:40;;;;;;;4.93;1.93;;;;;;;13.42;100.00;100336.52;633369;225;23733;-73
2020/12/23 03:17:08;;;;;;;2.93;1.57;;;;;;;13.35;100.00;100343.35;626429;229;24877;-72
2020/12/23 03:19:36;;;;;;;3.53;1.20;;;;;;;13.32;100.00;100337.96;626316;229;24798;-72
2020/12/23 03:22:04;;;;;;;5.87;2.00;;;;;;;13.10;100.00;100339.03;625097;229;23823;-72
2020/12/23 03:24:32;;;;;;;1.53;1.43;;;;;;;13.06;100.00;100336.70;639567;220;24841;-74
2020/12/23 03:27:00;;;;;;;1.50;1.40;;;;;;;13.06;100.00;100332.79;639425;224;23829;-73
2020/12/23 03:29:27;;;;;;;3.10;1.43;;;;;;;13.05;100.00;100337.69;627664;227;26038;-74
2020/12/23 03:31:56;;;;;;;3.50;1.37;;;;;;;13.10;100.00;100324.66;628151;223;23827;-73
2020/12/23 03:34:23;;;;;;;1.90;1.40;;;;;;;13.11;100.00;100336.74;625438;226;23826;-73
2020/12/23 03:36:51;;;;;;;1.20;1.10;;;;;;;13.11;100.00;100334.12;625644;229;23805;-73
2020/12/23 03:39:19;;;;;;;2.30;1.40;;;;;;;13.17;100.00;100334.79;629520;227;24850;-72
2020/12/23 03:41:47;;;;;;;1.97;1.20;;;;;;;13.20;100.00;100327.97;639084;224;23848;-71
2020/12/23 03:44:15;;;;;;;2.70;1.50;;;;;;;13.33;100.00;100333.55;621195;226;23814;-72
2020/12/23 03:46:43;;;;;;;1.90;1.33;;;;;;;13.17;100.00;100342.14;626786;226;28005;-72
2020/12/23 03:49:11;;;;;;;1.40;1.30;;;;;;;13.10;100.00;100330.70;626393;229;24180;-74
2020/12/23 03:51:39;;;;;;;8.63;1.50;;;;;;;13.11;100.00;100326.30;628763;228;24829;-74
2020/12/23 03:54:06;;;;;;;1.57;1.07;;;;;;;13.32;100.00;100322.29;626865;228;23861;-74
2020/12/23 03:56:34;;;;;;;1.17;1.07;;;;;;;13.32;100.00;100320.98;623060;229;23832;-75
2020/12/23 03:59:02;;;;;;;1.73;0.90;;;;;;;13.35;100.00;100318.53;624979;229;24886;-73
2020/12/23 04:01:30;;;;;;;1.00;0.90;;;;;;;13.39;100.00;100316.44;633599;225;24849;-73
2020/12/23 04:03:58;;;;;;;0.83;0.83;;;;;;;13.25;100.00;100304.33;637299;225;25013;-78
2020/12/23 04:06:26;;;;;;;0.87;0.87;;;;;;;13.21;100.00;100315.23;638052;225;30366;-73
2020/12/23 04:08:54;;;;;;;1.07;0.87;;;;;;;13.03;100.00;100309.61;634347;225;23830;-73
2020/12/23 04:11:22;;;;;;;1.47;0.90;;;;;;;12.98;100.00;100311.08;625696;229;26952;-73
2020/12/23 04:13:50;;;;;;;1.00;0.90;;;;;;;12.97;100.00;100312.88;627005;225;24785;-73
2020/12/23 04:16:18;;;;;;;1.13;0.60;;;;;;;13.00;100.00;100321.69;635039;224;24841;-73
2020/12/23 04:18:45;;;;;;;0.62;0.57;;;;;;;13.02;100.00;100309.28;635237;224;32631;-73
2020/12/23 04:21:13;;;;;;;4.37;0.70;;;;;;;12.97;100.00;100301.13;639501;224;23681;-73
2020/12/23 04:23:41;;;;;;;2.33;0.90;;;;;;;13.04;100.00;100298.19;639794;221;24818;-73
2020/12/23 04:26:09;;;;;;;0.70;0.70;;;;;;;13.24;100.00;100294.86;634205;224;32624;-76
2020/12/23 04:28:37;;;;;;;0.70;0.70;;;;;;;13.30;100.00;100294.70;625344;226;24934;-73
2020/12/23 04:31:05;;;;;;;0.80;0.80;;;;;;;13.18;100.00;100301.16;625662;229;23802;-73
2020/12/23 04:33:33;;;;;;;1.30;0.80;;;;;;;13.17;100.00;100293.00;628551;225;25019;-73
2020/12/23 04:36:01;;;;;;;3.13;0.70;;;;;;;13.39;100.00;100283.78;623587;228;32779;-74
2020/12/23 04:38:29;;;;;;;0.70;0.70;;;;;;;13.38;100.00;100284.27;628633;228;24803;-72
2020/12/23 04:40:57;;;;;;;0.70;0.70;;;;;;;13.46;100.00;100276.92;640327;223;25004;-72
2020/12/23 04:43:25;;;;;;;1.07;0.90;;;;;;;13.80;100.00;100272.86;633999;224;32715;-72
2020/12/23 04:45:53;;;;;;;0.87;0.80;;;;;;;13.71;100.00;100273.34;639112;223;24829;-72
2020/12/23 04:48:22;;;;;;;0.60;0.60;;;;;;;13.57;100.00;100270.89;639973;224;24046;-72
2020/12/23 04:50:50;;;;;;;1.60;0.80;;;;;;;13.60;100.00;100267.94;639953;224;24772;-74
2020/12/23 04:53:18;;;;;;;1.00;0.80;;;;;;;14.20;100.00;100254.95;628820;224;32641;-72
2020/12/23 04:55:45;;;;;;;1.00;0.80;;;;;;;13.96;100.00;100264.50;639309;220;23725;-72
2020/12/23 04:58:13;;;;;;;0.90;0.80;;;;;;;13.97;100.00;100261.39;640470;224;23795;-74
2020/12/23 05:00:41;;;;;;;1.23;0.60;;;;;;;13.99;100.00;100259.42;639567;224;23786;-73
2020/12/23 05:03:09;;;;;;;1.03;0.70;;;;;;;13.95;100.00;100254.20;639977;224;23846;-72
2020/12/23 05:05:37;;;;;;;0.60;0.60;;;;;;;13.95;100.00;100251.10;624227;226;23818;-75
2020/12/23 05:08:05;;;;;;;0.60;0.60;;;;;;;13.97;100.00;100248.31;639246;224;23802;-73
2020/12/23 05:10:33;;;;;;;0.83;0.73;;;;;;;13.95;100.00;100243.75;639308;224;23788;-73
2020/12/23 05:13:01;;;;;;;0.70;0.70;;;;;;;13.92;100.00;100246.67;640471;224;26945;-74
2020/12/23 05:15:28;;;;;;;0.80;0.80;;;;;;;13.93;100.00;100244.37;639420;220;24800;-76
2020/12/23 05:17:56;;;;;;;0.70;0.70;;;;;;;13.93;100.00;100247.84;638525;223;24812;-72
2020/12/23 05:20:24;;;;;;;1.10;0.70;;;;;;;14.50;100.00;100230.70;633982;224;32716;-76
2020/12/23 05:22:52;;;;;;;1.20;0.90;;;;;;;14.74;100.00;100229.75;633737;223;32805;-72
2020/12/23 05:25:20;;;;;;;0.80;0.80;;;;;;;14.14;100.00;100236.83;638571;224;23678;-72
2020/12/23 05:27:49;;;;;;;3.17;0.80;;;;;;;14.02;100.00;100230.81;638464;224;23871;-72
2020/12/23 05:30:18;;;;;;;1.67;0.80;;;;;;;13.90;100.00;100233.77;633882;224;23804;-73
2020/12/23 05:32:47;;;;;;;2.67;1.00;;;;;;;13.93;100.00;100229.53;638732;224;24825;-72
2020/12/23 05:35:15;;;;;;;1.33;0.97;;;;;;;13.95;100.00;100221.52;639846;224;24808;-72
2020/12/23 05:37:43;;;;;;;1.63;0.80;;;;;;;13.86;100.00;100222.51;640552;224;23792;-72
2020/12/23 05:40:11;;;;;;;0.77;0.77;;;;;;;14.44;100.00;100222.70;634407;224;32677;-73
2020/12/23 05:42:39;;;;;;;1.10;1.00;;;;;;;13.99;100.00;100224.61;640941;224;24765;-72
2020/12/23 05:45:08;;;;;;;0.97;0.87;;;;;;;13.92;100.00;100229.19;639682;220;23868;-74
2020/12/23 05:47:36;;;;;;;1.43;1.00;;;;;;;14.02;100.00;100226.89;626282;228;23830;-74
2020/12/23 05:50:04;;;;;;;1.40;1.30;;;;;;;14.02;100.00;100226.39;627367;229;23824;-73
2020/12/23 05:52:32;;;;;;;1.63;1.40;;;;;;;13.83;100.00;100221.54;629103;226;27030;-73
2020/12/23 05:55:00;;;;;;;1.30;1.20;;;;;;;13.76;100.00;100224.48;628501;227;23873;-73
2020/12/23 05:57:27;;;;;;;3.13;1.50;;;;;;;13.76;100.00;100225.78;625199;229;29167;-73
2020/12/23 05:59:55;;;;;;;1.40;1.30;;;;;;;13.56;100.00;100227.94;626427;229;26941;-72
2020/12/23 06:02:23;;;;;;;1.90;1.60;;;;;;;13.37;100.00;100232.97;625765;228;24846;-72
2020/12/23 06:04:51;;;;;;;1.60;1.50;;;;;;;13.41;100.00;100231.69;626050;225;24827;-74
2020/12/23 06:07:19;;;;;;;3.13;1.80;;;;;;;13.39;100.00;100234.14;641149;223;25498;-72
2020/12/23 06:09:47;;;;;;;1.40;1.30;;;;;;;13.27;100.00;100239.69;641793;224;23832;-72
2020/12/23 06:12:17;;;;;;;2.30;2.10;;;;;;;13.06;100.00;100237.48;639175;224;23794;-71
2020/12/23 06:14:51;;;;;;;1.80;1.50;;;;;;;13.09;100.00;100238.98;639774;224;23817;-72
2020/12/23 06:17:19;;;;;;;1.70;1.60;;;;;;;13.08;100.00;100235.52;627798;228;23911;-71
2020/12/23 06:19:48;;;;;;;2.90;1.60;;;;;;;13.07;100.00;100232.59;636449;224;23890;-72
2020/12/23 06:22:16;;;;;;;2.60;2.17;;;;;;;13.11;100.00;100229.19;640229;223;24787;-71
2020/12/23 06:24:45;;;;;;;2.07;1.87;;;;;;;13.14;100.00;100231.47;637792;224;23848;-71
2020/12/23 06:27:12;;;;;;;2.07;1.97;;;;;;;13.12;100.00;100225.59;638191;223;24811;-72
2020/12/23 06:29:40;;;;;;;2.00;1.90;;;;;;;13.14;100.00;100218.41;627534;229;23815;-72
2020/12/23 06:32:08;;;;;;;2.37;1.93;;;;;;;13.21;100.00;100215.98;640172;223;23809;-72
2020/12/23 06:34:36;;;;;;;2.23;1.93;;;;;;;13.26;100.00;100209.31;640027;220;24844;-72
2020/12/23 06:37:15;;;;;;;2.70;2.20;;;;;;;13.42;100.00;100209.00;639345;224;23806;-72
2020/12/23 06:39:43;;;;;;;2.07;1.97;;;;;;;13.52;100.00;100207.86;624662;229;24806;-72
2020/12/23 06:42:33;;;;;;;3.50;1.90;;;;;;;13.43;100.00;100200.17;626532;229;23848;-74
2020/12/23 06:45:17;;;;;;;7.80;1.93;;;;;;;13.32;100.00;100197.39;640258;220;23820;-70
2020/12/23 06:47:45;;;;;;;1.67;1.50;;;;;;;13.58;100.00;100187.58;633412;223;32919;-70
2020/12/23 06:50:31;;;;;;;1.70;1.60;;;;;;;13.20;100.00;100194.77;639530;224;23848;-70
2020/12/23 06:52:59;;;;;;;5.30;1.70;;;;;;;13.29;100.00;100200.34;633510;225;23866;-72
2020/12/23 06:55:38;;;;;;;2.03;1.70;;;;;;;13.23;100.00;100197.05;637581;225;23840;-71
2020/12/23 06:58:06;;;;;;;2.10;1.90;;;;;;;13.45;100.00;100195.59;632844;225;32696;-71
2020/12/23 07:00:40;;;;;;;2.77;2.10;;;;;;;13.25;100.00;100200.34;624938;230;22800;-71
2020/12/23 07:03:11;;;;;;;3.30;1.50;;;;;;;13.24;100.00;100197.41;635212;224;24846;-71
2020/12/23 07:05:41;;;;;;;1.57;1.47;;;;;;;13.23;100.00;100190.52;634952;223;24815;-70
2020/12/23 07:08:09;;;;;;;5.60;1.30;;;;;;;13.17;100.00;100190.66;628668;228;24843;-71
2020/12/23 07:10:37;;;;;;;5.43;1.57;;;;;;;13.22;100.00;100194.11;623670;229;23813;-70
2020/12/23 07:13:05;;;;;;;1.73;1.53;;;;;;;13.15;100.00;100197.84;625237;229;23823;-71
2020/12/23 07:15:33;;;;;;;2.00;1.60;;;;;;;13.15;100.00;100199.64;626159;226;23823;-70
2020/12/23 07:18:02;;;;;;;2.43;1.40;;;;;;;13.13;100.00;100195.08;628050;228;24920;-70
2020/12/23 07:20:32;;;;;;;4.70;1.50;;;;;;;13.11;100.00;100200.95;641052;223;24779;-70
2020/12/23 07:23:01;;;;;;;1.50;1.40;;;;;;;12.99;100.00;100199.14;640932;223;24813;-71
2020/12/23 07:25:29;;;;;;;1.70;1.60;;;;;;;13.04;100.00;100198.16;624423;229;24118;-71
2020/12/23 07:27:57;;;;;;;2.03;1.73;;;;;;;13.06;100.00;100202.23;626507;229;28045;-72
2020/12/23 07:30:25;;;;;;;2.70;1.93;;;;;;;13.11;100.00;100196.55;640720;224;23834;-71
2020/12/23 07:32:59;;;;;;;3.43;1.60;;;;;;;13.01;100.00;100199.79;640682;224;23816;-72
2020/12/23 07:35:27;;;;;;;1.90;1.80;;;;;;;12.92;100.00;100195.03;640135;220;24835;-74
2020/12/23 07:37:58;;;;;;;2.17;1.40;;;;;;;13.05;100.00;100193.26;639243;224;24806;-71
2020/12/23 07:40:26;;;;;;;2.10;1.73;;;;;;;12.97;100.00;100195.88;638912;224;24784;-71
2020/12/23 07:42:55;;;;;;;1.87;1.70;;;;;;;12.96;100.00;100196.86;639490;224;23810;-71
2020/12/23 07:45:22;;;;;;;1.70;1.60;;;;;;;12.95;100.00;100192.13;638787;220;24880;-71
2020/12/23 07:47:54;;;;;;;1.53;1.43;;;;;;;12.76;100.00;100193.70;637742;224;25958;-71
2020/12/23 07:50:22;;;;;;;2.27;1.70;;;;;;;12.82;100.00;100196.18;640818;224;24800;-71
2020/12/23 07:52:50;;;;;;;2.03;1.73;;;;;;;12.77;100.00;100186.20;637084;225;24845;-71
2020/12/23 07:55:17;;;;;;;2.57;2.00;;;;;;;12.91;100.00;100181.66;640273;220;23974;-71
2020/12/23 07:57:45;;;;;;;5.27;1.40;;;;;;;12.90;100.00;100183.13;638098;225;23849;-71
2020/12/23 08:00:13;;;;;;;3.73;1.30;;;;;;;12.79;100.00;100190.27;630369;225;25073;-72
2020/12/23 08:02:41;;;;;;;2.30;1.55;;;;;;;12.97;100.00;100194.57;617835;230;33048;-71
2020/12/23 08:05:09;;;;;;;2.77;1.90;;;;;;;12.89;100.00;100190.63;625042;228;23695;-70
2020/12/23 08:07:40;;;;;;;2.23;2.00;;;;;;;12.70;100.00;100187.83;626257;229;31363;-71
2020/12/23 08:10:10;;;;;;;3.77;2.07;;;;;;;12.82;100.00;100192.27;625183;229;23842;-71
2020/12/23 08:12:38;;;;;;;2.50;2.20;;;;;;;12.71;100.00;100188.97;625363;229;23819;-71
2020/12/23 08:15:11;;;;;;;2.40;2.20;;;;;;;12.78;100.00;100187.83;639460;220;24834;-72
2020/12/23 08:17:38;;;;;;;3.97;1.83;;;;;;;12.89;100.00;100192.75;638880;224;23821;-72
2020/12/23 08:20:08;;;;;;;3.63;2.23;;;;;;;12.99;100.00;100192.13;627323;226;25922;-71
2020/12/23 08:22:36;;;;;;;2.23;2.03;;;;;;;13.01;100.00;100191.47;629518;228;23860;-72
2020/12/23 08:25:05;;;;;;;3.93;2.10;;;;;;;13.21;100.00;100192.48;634659;220;32831;-72
2020/12/23 08:27:34;;;;;;;3.03;1.80;;;;;;;13.18;100.00;100193.63;638995;224;26006;-72
2020/12/23 08:30:03;;;;;;;3.30;2.50;;;;;;;13.76;100.00;100192.61;634828;224;32841;-71
2020/12/23 08:32:32;;;;;;;2.20;2.00;;;;;;;13.35;100.00;100195.75;633621;225;22823;-72
2020/12/23 08:35:00;;;;;;;2.33;2.10;;;;;;;13.23;100.00;100204.89;625103;225;23909;-72
2020/12/23 08:37:28;;;;;;;2.53;2.33;;;;;;;13.21;100.00;100193.30;631598;225;23854;-71
2020/12/23 08:39:56;;;;;;;2.53;2.30;;;;;;;13.14;100.00;100198.83;624900;229;23890;-71
2020/12/23 08:42:25;;;;;;;2.90;2.70;;;;;;;13.11;100.00;100199.16;626132;229;23816;-71
2020/12/23 08:44:54;;;;;;;5.20;3.00;;;;;;;13.07;100.00;100196.03;626808;225;23859;-70
2020/12/23 08:47:22;;;;;;;3.53;3.23;;;;;;;12.96;100.00;100201.59;625063;229;23840;-71
2020/12/23 08:49:50;;;;;;;4.73;3.43;;;;;;;12.91;100.00;100199.92;626612;229;25294;-72
2020/12/23 08:52:18;;;;;;;3.30;3.00;;;;;;;12.84;100.00;100202.05;637648;224;23836;-70
2020/12/23 08:54:48;;;;;;;3.57;3.27;;;;;;;12.66;100.00;100208.18;640079;220;23814;-70
2020/12/23 08:57:14;;;;;;;3.97;3.57;;;;;;;12.48;100.00;100212.20;640453;223;23819;-71
2020/12/23 08:59:42;;;;;;;3.90;3.60;;;;;;;12.64;100.00;100215.84;640254;224;24848;-70
2020/12/23 09:02:13;;;;;;;5.00;3.80;;;;;;;12.46;100.00;100215.46;637748;224;23875;-70
2020/12/23 09:04:41;;;;;;;5.03;4.53;;;;;;;12.36;100.00;100212.16;639767;221;24739;-70
2020/12/23 09:07:09;;;;;;;4.87;4.23;;;;;;;12.36;100.00;100210.84;639898;224;23807;-70
2020/12/23 09:09:36;;;;;;;7.27;5.10;;;;;;;12.38;100.00;100211.50;638263;224;23831;-69
2020/12/23 09:12:04;;;;;;;9.80;5.40;;;;;;;12.38;100.00;100208.08;625892;229;23823;-70
2020/12/23 09:14:34;;;;;;;5.60;4.77;;;;;;;12.51;100.00;100199.81;624967;226;23832;-70
2020/12/23 09:17:03;;;;;;;4.10;3.80;;;;;;;12.81;100.00;100187.99;639431;223;24828;-72
2020/12/23 09:19:41;;;;;;;5.70;4.10;;;;;;;12.93;100.00;100179.70;638490;224;23872;-70
2020/12/23 09:22:08;;;;;;;4.47;4.07;;;;;;;13.17;100.00;100177.61;624314;229;26107;-69
2020/12/23 09:24:36;;;;;;;5.10;4.03;;;;;;;13.11;100.00;100174.35;624539;226;25012;-70
2020/12/23 09:27:18;;;;;;;6.40;4.10;;;;;;;13.28;100.00;100168.67;629649;227;24845;-70
2020/12/23 09:29:46;;;;;;;5.37;3.87;;;;;;;13.28;100.00;100171.28;640810;223;23848;-70
2020/12/23 09:32:14;;;;;;;4.13;3.60;;;;;;;13.35;100.00;100171.75;640418;224;23814;-71
2020/12/23 09:34:42;;;;;;;5.47;3.53;;;;;;;13.48;100.00;100166.03;640916;219;23853;-70
2020/12/23 09:37:15;;;;;;;4.42;3.65;;;;;;;13.73;100.00;100166.00;636044;224;32665;-71
2020/12/23 09:39:43;;;;;;;5.95;4.10;;;;;;;13.86;100.00;100168.42;633108;224;32862;-70
2020/12/23 09:42:11;;;;;;;4.53;3.87;;;;;;;13.57;100.00;100170.28;640847;224;22719;-70
2020/12/23 09:44:39;;;;;;;4.50;3.10;;;;;;;13.57;100.00;100170.28;640096;221;28046;-70
2020/12/23 09:47:07;;;;;;;3.63;2.53;;;;;;;13.64;100.00;100174.34;640530;224;23813;-70
2020/12/23 09:49:34;;;;;;;4.73;2.60;;;;;;;13.73;100.00;100158.16;625547;229;23836;-71
2020/12/23 09:52:02;;;;;;;2.40;2.20;;;;;;;13.74;100.00;100152.77;624674;229;24818;-71
2020/12/23 09:54:30;;;;;;;5.47;2.33;;;;;;;13.53;100.00;100141.55;638373;224;24797;-69
2020/12/23 09:56:58;;;;;;;2.60;2.40;;;;;;;13.58;100.00;100136.63;637840;225;24845;-70
2020/12/23 09:59:26;;;;;;;5.27;2.37;;;;;;;13.54;100.00;100137.13;633116;225;23863;-70
2020/12/23 10:01:54;;;;;;;2.20;2.00;;;;;;;13.37;100.00;100127.17;629185;225;24845;-70
2020/12/23 10:04:22;;;;;;;6.00;2.33;;;;;;;13.36;100.00;100127.66;625106;226;23825;-70
2020/12/23 10:06:50;;;;;;;2.20;2.00;;;;;;;13.85;100.00;100116.30;615707;229;43747;-70
2020/12/23 10:09:18;;;;;;;3.43;2.50;;;;;;;13.70;100.00;100107.03;637456;224;22680;-70
2020/12/23 10:11:46;;;;;;;4.90;2.07;;;;;;;13.51;100.00;100097.79;626406;229;26986;-70
2020/12/23 10:14:14;;;;;;;3.97;1.90;;;;;;;13.45;100.00;100101.05;638601;221;24872;-70
2020/12/23 10:16:42;;;;;;;2.50;1.67;;;;;;;13.25;100.00;100099.30;639469;224;24881;-70
2020/12/23 10:19:10;;;;;;;2.83;1.67;;;;;;;13.46;100.00;100101.37;638845;224;23813;-71
2020/12/23 10:21:37;;;;;;;2.83;1.70;;;;;;;13.56;100.00;100093.36;638369;224;24886;-71
2020/12/23 10:24:05;;;;;;;2.00;1.40;;;;;;;13.27;100.00;100099.94;625820;226;23844;-70
2020/12/23 10:26:33;;;;;;;2.20;1.70;;;;;;;13.23;100.00;100089.97;626624;229;25848;-70
2020/12/23 10:29:01;;;;;;;1.80;1.70;;;;;;;13.40;100.00;100090.78;640405;223;24145;-70
2020/12/23 10:31:29;;;;;;;2.10;1.90;;;;;;;13.51;100.00;100078.19;638756;224;24840;-70
2020/12/23 10:33:57;;;;;;;1.53;1.43;;;;;;;13.63;100.00;100076.01;637983;224;24820;-73
2020/12/23 10:36:25;;;;;;;4.00;2.00;;;;;;;13.59;100.00;100074.72;638734;224;26025;-70
2020/12/23 10:38:52;;;;;;;2.53;1.63;;;;;;;13.48;100.00;100069.36;640698;223;24811;-70
2020/12/23 10:41:20;;;;;;;2.97;2.20;;;;;;;13.66;100.00;100063.45;640427;223;23811;-70
2020/12/23 10:43:48;;;;;;;4.73;1.67;;;;;;;13.76;100.00;100057.19;641333;223;23867;-70
2020/12/23 10:46:16;;;;;;;2.63;2.00;;;;;;;13.70;100.00;100052.16;639258;224;24799;-71
2020/12/23 10:48:44;;;;;;;1.80;1.70;;;;;;;13.48;100.00;100045.84;639414;224;24304;-71
2020/12/23 10:51:12;;;;;;;2.83;1.80;;;;;;;13.57;100.00;100044.84;635042;224;32850;-70
2020/12/23 10:53:40;;;;;;;2.77;2.07;;;;;;;13.51;100.00;100042.08;638601;224;22715;-70
2020/12/23 10:56:09;;;;;;;3.67;1.50;;;;;;;13.64;100.00;100048.89;633374;224;43675;-70
2020/12/23 10:58:37;;;;;;;4.77;2.30;;;;;;;13.61;100.00;100047.44;640932;224;22696;-70
2020/12/23 11:01:05;;;;;;;2.47;1.90;;;;;;;13.69;100.00;100042.68;638823;224;24882;-71
2020/12/23 11:03:33;;;;;;;2.73;2.30;;;;;;;13.85;100.00;100035.26;626029;229;23823;-72
2020/12/23 11:06:01;;;;;;;4.70;2.90;;;;;;;13.82;100.00;100036.42;625143;228;23864;-70
2020/12/23 11:08:29;;;;;;;4.97;1.90;;;;;;;13.80;100.00;100025.81;629205;228;24858;-71
2020/12/23 11:10:56;;;;;;;1.70;1.60;;;;;;;13.95;100.00;100022.30;625536;229;24794;-70
2020/12/23 11:13:24;;;;;;;1.83;1.73;;;;;;;13.93;100.00;100021.67;626380;229;24971;-70
2020/12/23 11:15:52;;;;;;;3.53;2.40;;;;;;;13.85;100.00;100016.47;625589;225;23820;-70
2020/12/23 11:18:20;;;;;;;2.60;2.10;;;;;;;14.01;100.00;100019.48;626575;229;23817;-70
2020/12/23 11:20:48;;;;;;;3.93;2.37;;;;;;;13.93;100.00;100014.28;626367;228;24865;-70
2020/12/23 11:23:24;;;;;;;2.20;2.00;;;;;;;13.72;100.00;100019.30;634805;224;23841;-70